Time;durP1;ratioP1;P1;durP2;ratioP2;P2;SDS_P1;SDS_P2;PMS_P1;PMS_P2;Temp;Humidity;BMP_temperature;BMP_pressure;BME280_temperature;BME280_humidity;BME280_pressure;Samples;Min_cycle;Max_cycle;Signal;HPM_P1;HPM_P2
2023/10/27 00:00:57;;;;;;;;;;;11.30;99.90;;;;;;8360939;28;20175;-70
2023/10/27 00:04:59;;;;;;;;;;;11.30;99.90;;;;;;8358584;28;19947;-70
2023/10/27 00:09:01;;;;;;;;;;;11.40;99.90;;;;;;8353480;28;19925;-70
2023/10/27 00:13:02;;;;;;;;;;;11.40;99.90;;;;;;8355993;28;19929;-70
2023/10/27 00:17:04;;;;;;;;;;;11.40;99.90;;;;;;8340384;28;19956;-70
2023/10/27 00:21:06;;;;;;;;;;;11.30;99.90;;;;;;8360308;28;19999;-70
2023/10/27 00:25:07;;;;;;;;;;;11.30;99.90;;;;;;8358739;28;20296;-70
2023/10/27 00:29:09;;;;;;;;;;;11.30;99.90;;;;;;8359021;28;20339;-70
2023/10/27 00:33:11;;;;;;;;;;;11.30;99.90;;;;;;8340717;28;19982;-70
2023/10/27 00:37:13;;;;;;;;;;;11.30;99.90;;;;;;8341312;28;19946;-70
2023/10/27 00:41:14;;;;;;;;;;;11.30;99.90;;;;;;8360380;28;19925;-70
2023/10/27 00:45:16;;;;;;;;;;;11.30;99.90;;;;;;8356894;28;19947;-70
2023/10/27 00:49:18;;;;;;;;;;;11.30;99.90;;;;;;8358119;28;19978;-70
2023/10/27 00:53:23;;;;;;;;;;;11.30;99.90;;;;;;8356166;28;19925;-70
2023/10/27 00:57:25;;;;;;;;;;;11.30;99.90;;;;;;8359275;28;20358;-70
2023/10/27 01:01:27;;;;;;;;;;;11.40;99.90;;;;;;8355334;28;19980;-70
2023/10/27 01:05:28;;;;;;;;;;;11.40;99.90;;;;;;8356470;28;19965;-70
2023/10/27 01:09:30;;;;;;;;;;;11.40;99.90;;;;;;8333607;28;19976;-70
2023/10/27 01:13:32;;;;;;;;;;;11.40;99.90;;;;;;8356771;28;19955;-70
2023/10/27 01:17:33;;;;;;;;;;;11.40;99.90;;;;;;8358080;28;19959;-70
2023/10/27 01:21:35;;;;;;;;;;;11.40;99.90;;;;;;8358101;28;20315;-70
2023/10/27 01:25:37;;;;;;;;;;;11.40;99.90;;;;;;8357347;28;19925;-70
2023/10/27 01:29:39;;;;;;;;;;;11.40;99.90;;;;;;8357615;28;19968;-70
2023/10/27 01:33:40;;;;;;;;;;;11.40;99.90;;;;;;8356059;28;19932;-70
2023/10/27 01:37:42;;;;;;;;;;;11.40;99.90;;;;;;8354395;28;20410;-70
2023/10/27 01:41:43;;;;;;;;;;;11.40;99.90;;;;;;8357773;28;19986;-70
2023/10/27 01:45:45;;;;;;;;;;;11.40;99.90;;;;;;8357542;28;20445;-70
2023/10/27 01:49:47;;;;;;;;;;;11.40;99.90;;;;;;8359388;28;19968;-70
2023/10/27 01:53:48;;;;;;;;;;;11.40;99.90;;;;;;8353801;28;19929;-70
2023/10/27 01:57:50;;;;;;;;;;;11.40;99.90;;;;;;8357157;28;19933;-70
2023/10/27 02:01:52;;;;;;;;;;;11.40;99.90;;;;;;8353104;28;20446;-70
2023/10/27 02:05:53;;;;;;;;;;;11.40;99.90;;;;;;8356984;28;19972;-70
2023/10/27 02:09:59;;;;;;;;;;;11.30;99.90;;;;;;8350524;28;19925;-70
2023/10/27 02:14:00;;;;;;;;;;;11.40;99.90;;;;;;8353470;28;19929;-70
2023/10/27 02:18:02;;;;;;;;;;;11.40;99.90;;;;;;8358580;28;19932;-70
2023/10/27 02:22:04;;;;;;;;;;;11.40;99.90;;;;;;8330459;28;20015;-70
2023/10/27 02:26:05;;;;;;;;;;;11.40;99.90;;;;;;8355229;28;19990;-70
2023/10/27 02:30:08;;;;;;;;;;;11.40;99.90;;;;;;8357200;28;20027;-70
2023/10/27 02:34:09;;;;;;;;;;;11.40;99.90;;;;;;8353402;28;19932;-70
2023/10/27 02:38:11;;;;;;;;;;;11.40;99.90;;;;;;8339175;28;19986;-70
2023/10/27 02:42:13;;;;;;;;;;;11.40;99.90;;;;;;8355320;28;19925;-70
2023/10/27 02:46:15;;;;;;;;;;;11.40;99.90;;;;;;8353750;28;20421;-70
2023/10/27 02:50:16;;;;;;;;;;;11.40;99.90;;;;;;8339023;28;19986;-70
2023/10/27 02:54:18;;;;;;;;;;;11.40;99.90;;;;;;8354422;28;19931;-70
2023/10/27 02:58:20;;;;;;;;;;;11.40;99.90;;;;;;8354681;28;19932;-70
2023/10/27 03:02:21;;;;;;;;;;;11.40;99.90;;;;;;8354986;28;20849;-70
2023/10/27 03:06:23;;;;;;;;;;;11.40;99.90;;;;;;8354195;28;20405;-70
2023/10/27 03:10:25;;;;;;;;;;;11.40;99.90;;;;;;8349530;28;19976;-70
2023/10/27 03:14:27;;;;;;;;;;;11.50;99.90;;;;;;8352032;28;20371;-70
2023/10/27 03:18:29;;;;;;;;;;;11.50;99.90;;;;;;8352846;28;19955;-70
2023/10/27 03:22:31;;;;;;;;;;;11.50;99.90;;;;;;8353739;28;19974;-70
2023/10/27 03:26:33;;;;;;;;;;;11.50;99.90;;;;;;8367754;28;19925;-70
2023/10/27 03:30:35;;;;;;;;;;;11.50;99.90;;;;;;8366020;28;19925;-70
2023/10/27 03:34:37;;;;;;;;;;;11.50;99.90;;;;;;8358909;28;19932;-70
2023/10/27 03:38:38;;;;;;;;;;;11.50;99.90;;;;;;8358699;28;19973;-70
2023/10/27 03:42:40;;;;;;;;;;;11.50;99.90;;;;;;8360955;28;20280;-70
2023/10/27 03:46:42;;;;;;;;;;;11.50;99.90;;;;;;8363782;28;19973;-70
2023/10/27 03:50:43;;;;;;;;;;;11.60;99.90;;;;;;8366993;28;19924;-70
2023/10/27 03:54:45;;;;;;;;;;;11.60;99.90;;;;;;8361345;28;20312;-70
2023/10/27 03:58:46;;;;;;;;;;;11.60;99.90;;;;;;8361715;28;20376;-70
2023/10/27 04:02:49;;;;;;;;;;;11.60;99.90;;;;;;8363163;28;19933;-70
2023/10/27 04:06:50;;;;;;;;;;;11.60;99.90;;;;;;8359663;28;19924;-70
2023/10/27 04:10:52;;;;;;;;;;;11.60;99.90;;;;;;8370571;28;19929;-71
2023/10/27 04:14:54;;;;;;;;;;;11.60;99.90;;;;;;8363518;28;19925;-70
2023/10/27 04:18:56;;;;;;;;;;;11.60;99.90;;;;;;8366077;28;19932;-70
2023/10/27 04:22:58;;;;;;;;;;;11.60;99.90;;;;;;8361989;28;20005;-70
2023/10/27 04:27:00;;;;;;;;;;;11.60;99.90;;;;;;8362539;28;19931;-70
2023/10/27 04:31:02;;;;;;;;;;;11.60;99.90;;;;;;8365966;28;20402;-70
2023/10/27 04:35:03;;;;;;;;;;;11.60;99.90;;;;;;8358282;28;19925;-71
2023/10/27 04:39:05;;;;;;;;;;;11.60;99.90;;;;;;8357297;28;19932;-70
2023/10/27 04:43:07;;;;;;;;;;;11.60;99.90;;;;;;8357122;28;19925;-70
2023/10/27 04:47:09;;;;;;;;;;;11.60;99.90;;;;;;8355414;28;19936;-71
2023/10/27 04:51:10;;;;;;;;;;;11.60;99.90;;;;;;8356134;28;19965;-70
2023/10/27 04:55:12;;;;;;;;;;;11.60;99.90;;;;;;8355831;28;19982;-70
2023/10/27 04:59:14;;;;;;;;;;;11.60;99.90;;;;;;8359235;28;19940;-70
2023/10/27 05:03:16;;;;;;;;;;;11.60;99.90;;;;;;8332696;28;20431;-71
2023/10/27 05:07:17;;;;;;;;;;;11.60;99.90;;;;;;8357220;28;19954;-70
2023/10/27 05:11:19;;;;;;;;;;;11.60;99.90;;;;;;8334673;28;20129;-71
2023/10/27 05:15:21;;;;;;;;;;;11.60;99.90;;;;;;8354959;28;20774;-70
2023/10/27 05:19:23;;;;;;;;;;;11.60;99.90;;;;;;8357492;28;20423;-70
2023/10/27 05:23:25;;;;;;;;;;;11.60;99.90;;;;;;8354924;28;20465;-70
2023/10/27 05:27:27;;;;;;;;;;;11.60;99.90;;;;;;8355625;28;20529;-70
2023/10/27 05:31:28;;;;;;;;;;;11.60;99.90;;;;;;8354094;28;20362;-70
2023/10/27 05:35:30;;;;;;;;;;;11.60;99.90;;;;;;8355596;28;20012;-70
2023/10/27 05:39:32;;;;;;;;;;;11.60;99.90;;;;;;8365778;28;19972;-70
2023/10/27 05:43:33;;;;;;;;;;;11.60;99.90;;;;;;8354755;28;20003;-70
2023/10/27 05:47:35;;;;;;;;;;;11.60;99.90;;;;;;8355881;28;19925;-70
2023/10/27 05:51:36;;;;;;;;;;;11.60;99.90;;;;;;8353266;28;19932;-69
2023/10/27 05:55:38;;;;;;;;;;;11.60;99.90;;;;;;8359048;28;19936;-70
2023/10/27 05:59:40;;;;;;;;;;;11.60;99.90;;;;;;8359021;28;19925;-70
2023/10/27 06:03:41;;;;;;;;;;;11.60;99.90;;;;;;8354137;28;19925;-70
2023/10/27 06:07:43;;;;;;;;;;;11.60;99.90;;;;;;8358257;28;19932;-70
2023/10/27 06:11:45;;;;;;;;;;;11.70;99.90;;;;;;8348518;28;20296;-70
2023/10/27 06:15:47;;;;;;;;;;;11.70;99.90;;;;;;8354632;28;20403;-70
2023/10/27 06:19:48;;;;;;;;;;;11.70;99.90;;;;;;8351932;28;20361;-70
2023/10/27 06:24:03;;;;;;;;;;;11.70;99.90;;;;;;8353783;28;19958;-70
2023/10/27 06:28:04;;;;;;;;;;;11.70;99.90;;;;;;8357644;28;20411;-70
2023/10/27 06:32:06;;;;;;;;;;;11.70;99.90;;;;;;8355226;28;19940;-70
2023/10/27 06:36:07;;;;;;;;;;;11.70;99.90;;;;;;8352645;28;20477;-70
2023/10/27 06:40:10;;;;;;;;;;;11.70;99.90;;;;;;8359977;28;19929;-70
2023/10/27 06:44:12;;;;;;;;;;;11.70;99.90;;;;;;8355673;28;19935;-70
2023/10/27 06:48:14;;;;;;;;;;;11.70;99.90;;;;;;8351940;28;19929;-70
2023/10/27 06:52:16;;;;;;;;;;;11.70;99.90;;;;;;8340036;28;19929;-70
2023/10/27 06:56:17;;;;;;;;;;;11.70;99.90;;;;;;8355249;28;19925;-70
2023/10/27 07:00:19;;;;;;;;;;;11.70;99.90;;;;;;8357096;28;20023;-70
2023/10/27 07:04:21;;;;;;;;;;;11.70;99.90;;;;;;8329826;28;19925;-70
2023/10/27 07:08:22;;;;;;;;;;;11.70;99.90;;;;;;8352013;28;19929;-70
2023/10/27 07:12:24;;;;;;;;;;;11.80;99.90;;;;;;8343956;28;19925;-70
2023/10/27 07:16:26;;;;;;;;;;;11.80;99.90;;;;;;8355353;28;20299;-71
2023/10/27 07:20:27;;;;;;;;;;;11.80;99.90;;;;;;8356918;28;19932;-70
2023/10/27 07:24:32;;;;;;;;;;;11.80;99.90;;;;;;8354376;28;19932;-70
2023/10/27 07:28:33;;;;;;;;;;;11.80;99.90;;;;;;8356178;28;20368;-70
2023/10/27 07:32:35;;;;;;;;;;;11.80;99.90;;;;;;8353482;28;20444;-70
2023/10/27 07:36:37;;;;;;;;;;;11.80;99.90;;;;;;8355445;28;19974;-70
2023/10/27 07:40:42;;;;;;;;;;;11.80;99.90;;;;;;8354992;28;19935;-70
2023/10/27 07:44:44;;;;;;;;;;;11.90;99.90;;;;;;8354224;28;20475;-70
2023/10/27 07:48:46;;;;;;;;;;;11.90;99.90;;;;;;8344520;28;19929;-70
2023/10/27 07:52:47;;;;;;;;;;;11.90;99.90;;;;;;8352911;28;19924;-70
2023/10/27 07:56:49;;;;;;;;;;;11.90;99.90;;;;;;8356887;28;19931;-70
2023/10/27 08:00:53;;;;;;;;;;;12.00;99.90;;;;;;8353275;28;19978;-70
2023/10/27 08:04:55;;;;;;;;;;;12.00;99.90;;;;;;8348086;28;19956;-70
2023/10/27 08:08:56;;;;;;;;;;;12.00;99.90;;;;;;8339362;28;19932;-69
2023/10/27 08:12:58;;;;;;;;;;;12.00;99.90;;;;;;8349535;28;19926;-69
2023/10/27 08:17:00;;;;;;;;;;;12.00;99.90;;;;;;8357413;28;19925;-70
2023/10/27 08:21:02;;;;;;;;;;;12.00;99.90;;;;;;8340242;28;20284;-69
2023/10/27 08:25:04;;;;;;;;;;;12.10;99.90;;;;;;8358174;28;19960;-70
2023/10/27 08:29:05;;;;;;;;;;;12.10;99.90;;;;;;8357718;28;19951;-70
2023/10/27 08:33:08;;;;;;;;;;;12.10;99.90;;;;;;8355459;28;20388;-70
2023/10/27 08:37:09;;;;;;;;;;;12.10;99.90;;;;;;8342936;28;19929;-70
2023/10/27 08:41:13;;;;;;;;;;;12.10;99.90;;;;;;8361071;28;19924;-70
2023/10/27 08:45:15;;;;;;;;;;;12.10;99.90;;;;;;8357420;28;19929;-70
2023/10/27 08:49:17;;;;;;;;;;;12.20;99.90;;;;;;8354965;28;19974;-70
2023/10/27 08:53:19;;;;;;;;;;;12.10;99.90;;;;;;8352031;28;19939;-70
2023/10/27 08:57:20;;;;;;;;;;;12.20;99.90;;;;;;8356286;28;19957;-70
2023/10/27 09:01:22;;;;;;;;;;;12.20;99.90;;;;;;8358845;28;19950;-70
2023/10/27 09:05:24;;;;;;;;;;;12.20;99.90;;;;;;8358222;28;19925;-70
2023/10/27 09:09:26;;;;;;;;;;;12.10;99.90;;;;;;8328165;28;19979;-70
2023/10/27 09:13:27;;;;;;;;;;;12.10;99.90;;;;;;8339084;28;19925;-70
2023/10/27 09:17:29;;;;;;;;;;;12.10;99.90;;;;;;8335891;28;20391;-70
2023/10/27 09:21:32;;;;;;;;;;;12.10;99.90;;;;;;8322897;28;20229;-70
2023/10/27 09:25:34;;;;;;;;;;;12.20;99.90;;;;;;8322582;28;19928;-70
2023/10/27 09:29:40;;;;;;;;;;;12.20;99.90;;;;;;8323722;28;20007;-70
2023/10/27 09:33:41;;;;;;;;;;;12.20;99.90;;;;;;8322349;28;19929;-70
2023/10/27 09:37:46;;;;;;;;;;;12.30;99.90;;;;;;8321252;28;20408;-70
2023/10/27 09:41:56;;;;;;;;;;;12.30;99.90;;;;;;8322827;28;19925;-70
2023/10/27 09:46:00;;;;;;;;;;;12.30;99.90;;;;;;8320198;28;20092;-70
2023/10/27 09:50:06;;;;;;;;;;;12.30;99.90;;;;;;8318881;28;20065;-70
2023/10/27 09:54:08;;;;;;;;;;;12.40;99.90;;;;;;8320470;28;20017;-70
2023/10/27 09:58:10;;;;;;;;;;;12.40;99.90;;;;;;8324140;28;19964;-70
2023/10/27 10:02:11;;;;;;;;;;;12.40;99.90;;;;;;8318444;28;19975;-70
2023/10/27 10:06:20;;;;;;;;;;;12.40;99.90;;;;;;8321629;28;19929;-70
2023/10/27 10:10:29;;;;;;;;;;;12.30;99.90;;;;;;8320875;28;19933;-70
2023/10/27 10:14:37;;;;;;;;;;;12.30;99.90;;;;;;8321911;28;19939;-70
2023/10/27 10:18:50;;;;;;;;;;;12.30;99.90;;;;;;8319123;28;19936;-70
2023/10/27 10:22:52;;;;;;;;;;;12.40;99.90;;;;;;8315613;28;19982;-70
2023/10/27 10:27:05;;;;;;;;;;;12.30;99.90;;;;;;8316292;28;19925;-70
2023/10/27 10:31:06;;;;;;;;;;;12.40;99.90;;;;;;8321226;28;19925;-70
2023/10/27 10:35:21;;;;;;;;;;;12.40;99.90;;;;;;8320713;28;19925;-70
2023/10/27 10:39:23;;;;;;;;;;;12.50;99.90;;;;;;8316350;28;20200;-70
2023/10/27 10:43:36;;;;;;;;;;;12.40;99.90;;;;;;8320886;28;20057;-69
2023/10/27 10:47:39;;;;;;;;;;;12.40;99.90;;;;;;8324728;28;20359;-70
2023/10/27 10:51:41;;;;;;;;;;;12.40;99.90;;;;;;8320092;28;19932;-70
2023/10/27 10:55:44;;;;;;;;;;;12.40;99.90;;;;;;8319268;28;19929;-70
2023/10/27 10:59:52;;;;;;;;;;;12.40;99.90;;;;;;8324634;28;20343;-70
2023/10/27 11:03:54;;;;;;;;;;;12.50;99.90;;;;;;8319402;28;19986;-70
2023/10/27 11:07:56;;;;;;;;;;;12.50;99.90;;;;;;8319799;28;19979;-70
2023/10/27 11:11:58;;;;;;;;;;;12.50;99.90;;;;;;8322024;28;19926;-70
2023/10/27 11:16:00;;;;;;;;;;;12.50;99.90;;;;;;8320531;28;19973;-70
2023/10/27 11:20:02;;;;;;;;;;;12.60;99.90;;;;;;8320395;28;19983;-69
2023/10/27 11:24:07;;;;;;;;;;;12.60;99.90;;;;;;8319736;28;24518;-70
2023/10/27 11:28:16;;;;;;;;;;;12.60;99.90;;;;;;8322215;28;19972;-70
2023/10/27 11:32:18;;;;;;;;;;;12.60;99.90;;;;;;8318932;28;19925;-70
2023/10/27 11:36:20;;;;;;;;;;;12.60;99.90;;;;;;8319693;28;20319;-70
2023/10/27 11:40:21;;;;;;;;;;;12.60;99.90;;;;;;8320705;28;19937;-70
2023/10/27 11:44:23;;;;;;;;;;;12.60;99.90;;;;;;8318717;28;20072;-70
2023/10/27 11:48:25;;;;;;;;;;;12.60;99.90;;;;;;8327588;28;20407;-70
2023/10/27 11:52:27;;;;;;;;;;;12.60;99.90;;;;;;8321622;28;20511;-70
2023/10/27 11:56:29;;;;;;;;;;;12.60;99.90;;;;;;8323388;28;19935;-69
2023/10/27 12:00:30;;;;;;;;;;;12.60;99.90;;;;;;8326872;28;19925;-70
2023/10/27 12:04:32;;;;;;;;;;;12.70;99.90;;;;;;8322334;28;19951;-70
2023/10/27 12:08:34;;;;;;;;;;;12.70;99.90;;;;;;8328357;28;19929;-69
2023/10/27 12:12:36;;;;;;;;;;;12.70;99.90;;;;;;8331650;28;19972;-70
2023/10/27 12:16:37;;;;;;;;;;;12.70;99.90;;;;;;8325924;28;19925;-69
2023/10/27 12:20:39;;;;;;;;;;;12.80;99.90;;;;;;8324478;28;19925;-70
2023/10/27 12:24:41;;;;;;;;;;;12.80;99.90;;;;;;8328182;28;19929;-70
2023/10/27 12:28:42;;;;;;;;;;;12.80;99.90;;;;;;8325317;28;19925;-70
2023/10/27 12:32:44;;;;;;;;;;;12.80;99.90;;;;;;8320564;28;19929;-70
2023/10/27 12:36:47;;;;;;;;;;;12.80;99.90;;;;;;8323201;28;20365;-70
2023/10/27 12:40:49;;;;;;;;;;;12.80;99.90;;;;;;8328118;28;20304;-70
2023/10/27 12:44:50;;;;;;;;;;;12.80;99.90;;;;;;8338715;28;19925;-70
2023/10/27 12:48:52;;;;;;;;;;;12.80;99.90;;;;;;8326833;28;19936;-70
2023/10/27 12:52:54;;;;;;;;;;;12.80;99.90;;;;;;8305335;28;20456;-69
2023/10/27 12:56:55;;;;;;;;;;;12.80;99.90;;;;;;8339057;28;19975;-69
2023/10/27 13:00:57;;;;;;;;;;;12.70;99.90;;;;;;8324338;28;19924;-70
2023/10/27 13:05:00;;;;;;;;;;;12.70;99.90;;;;;;8321796;28;20402;-70
2023/10/27 13:09:02;;;;;;;;;;;12.70;99.90;;;;;;8321991;28;19936;-70
2023/10/27 13:13:04;;;;;;;;;;;12.60;99.90;;;;;;8321881;28;19991;-70
2023/10/27 13:17:06;;;;;;;;;;;12.60;99.90;;;;;;8320875;28;19932;-70
2023/10/27 13:21:14;;;;;;;;;;;12.60;99.90;;;;;;8323288;28;19987;-70
2023/10/27 13:25:16;;;;;;;;;;;12.60;99.90;;;;;;8328079;28;19929;-69
2023/10/27 13:29:18;;;;;;;;;;;12.60;99.90;;;;;;8325131;28;20062;-69
2023/10/27 13:33:20;;;;;;;;;;;12.60;99.90;;;;;;8326563;28;19928;-70
2023/10/27 13:37:27;;;;;;;;;;;12.60;99.90;;;;;;8323758;28;19933;-70
2023/10/27 13:41:34;;;;;;;;;;;12.70;99.90;;;;;;8319803;28;19931;-70
2023/10/27 13:45:36;;;;;;;;;;;12.70;99.90;;;;;;8324506;28;19939;-69
2023/10/27 13:49:38;;;;;;;;;;;12.60;99.90;;;;;;8321933;28;20288;-70
2023/10/27 13:53:41;;;;;;;;;;;12.70;99.90;;;;;;8322470;28;20427;-69
2023/10/27 13:57:42;;;;;;;;;;;12.60;99.90;;;;;;8322015;28;19961;-70
2023/10/27 14:01:44;;;;;;;;;;;12.60;99.90;;;;;;8320234;28;20382;-70
2023/10/27 14:05:49;;;;;;;;;;;12.70;99.90;;;;;;8323892;28;19933;-70
2023/10/27 14:09:51;;;;;;;;;;;12.70;99.90;;;;;;8320318;28;19940;-70
2023/10/27 14:13:53;;;;;;;;;;;12.80;99.90;;;;;;8321550;28;20343;-70
2023/10/27 14:17:55;;;;;;;;;;;12.90;99.90;;;;;;8323547;28;19980;-70
2023/10/27 14:21:56;;;;;;;;;;;12.90;99.90;;;;;;8322469;28;19975;-70
2023/10/27 14:25:58;;;;;;;;;;;12.90;99.90;;;;;;8321541;28;19925;-70
2023/10/27 14:30:00;;;;;;;;;;;12.90;99.90;;;;;;8339219;28;19929;-70
2023/10/27 14:34:02;;;;;;;;;;;12.80;99.90;;;;;;8325843;28;19929;-70
2023/10/27 14:38:04;;;;;;;;;;;12.80;99.90;;;;;;8319531;28;20401;-70
2023/10/27 14:42:05;;;;;;;;;;;12.80;99.90;;;;;;8306008;28;19929;-70
2023/10/27 14:46:11;;;;;;;;;;;12.70;99.90;;;;;;8323032;28;20249;-70
2023/10/27 14:50:13;;;;;;;;;;;12.70;99.90;;;;;;8322786;28;19929;-70
2023/10/27 14:54:15;;;;;;;;;;;12.70;99.90;;;;;;8320909;28;19929;-70
2023/10/27 14:58:17;;;;;;;;;;;12.70;99.90;;;;;;8322787;28;19929;-70
2023/10/27 15:02:19;;;;;;;;;;;12.70;99.90;;;;;;8321520;28;20360;-70
2023/10/27 15:06:21;;;;;;;;;;;12.70;99.90;;;;;;8317758;28;20420;-70
2023/10/27 15:10:23;;;;;;;;;;;12.70;99.90;;;;;;8320800;28;19929;-70
2023/10/27 15:14:24;;;;;;;;;;;12.70;99.90;;;;;;8301102;28;19955;-70
2023/10/27 15:18:26;;;;;;;;;;;12.70;99.90;;;;;;8319930;28;19925;-70
2023/10/27 15:22:28;;;;;;;;;;;12.70;99.90;;;;;;8319222;28;19933;-70
2023/10/27 15:26:29;;;;;;;;;;;12.70;99.90;;;;;;8319852;28;19944;-70
2023/10/27 15:30:31;;;;;;;;;;;12.70;99.90;;;;;;8319743;28;20019;-70
2023/10/27 15:34:33;;;;;;;;;;;12.70;99.90;;;;;;8322838;28;20432;-70
2023/10/27 15:38:35;;;;;;;;;;;12.60;99.90;;;;;;8321965;28;20422;-70
2023/10/27 15:42:37;;;;;;;;;;;12.60;99.90;;;;;;8318452;28;19925;-70
2023/10/27 15:46:41;;;;;;;;;;;12.50;99.90;;;;;;8319206;28;20012;-70
2023/10/27 15:50:43;;;;;;;;;;;12.40;99.90;;;;;;8323131;28;19924;-70
2023/10/27 15:54:44;;;;;;;;;;;12.40;99.90;;;;;;8318743;28;19940;-70
2023/10/27 15:58:47;;;;;;;;;;;12.30;99.90;;;;;;8320229;28;19976;-70
2023/10/27 16:02:48;;;;;;;;;;;12.30;99.90;;;;;;8319797;28;20363;-70
2023/10/27 16:06:57;;;;;;;;;;;12.30;99.90;;;;;;8321533;28;19929;-70
2023/10/27 16:11:00;;;;;;;;;;;12.40;99.90;;;;;;8316804;28;19959;-70
2023/10/27 16:15:02;;;;;;;;;;;12.40;99.90;;;;;;8318020;28;19929;-70
2023/10/27 16:19:04;;;;;;;;;;;12.40;99.90;;;;;;8318282;28;19948;-70
2023/10/27 16:23:06;;;;;;;;;;;12.50;99.90;;;;;;8315209;28;19925;-70
2023/10/27 16:27:08;;;;;;;;;;;12.50;99.90;;;;;;8315763;28;19971;-70
2023/10/27 16:31:09;;;;;;;;;;;12.50;99.90;;;;;;8320996;28;19933;-70
2023/10/27 16:35:12;;;;;;;;;;;12.60;99.90;;;;;;8324158;28;19929;-70
2023/10/27 16:39:14;;;;;;;;;;;12.50;99.90;;;;;;8307012;28;19968;-70
2023/10/27 16:43:16;;;;;;;;;;;12.50;99.90;;;;;;8328721;28;19933;-70
2023/10/27 16:47:18;;;;;;;;;;;12.50;99.90;;;;;;8326931;28;20299;-70
2023/10/27 16:51:19;;;;;;;;;;;12.50;99.90;;;;;;8327912;28;20368;-70
2023/10/27 16:55:21;;;;;;;;;;;12.50;99.90;;;;;;8326424;28;19995;-70
2023/10/27 16:59:23;;;;;;;;;;;12.50;99.90;;;;;;8326920;28;19978;-70
2023/10/27 17:03:24;;;;;;;;;;;12.50;99.90;;;;;;8306699;28;20316;-70
2023/10/27 17:07:26;;;;;;;;;;;12.50;99.90;;;;;;8326242;28;19929;-70
2023/10/27 17:11:28;;;;;;;;;;;12.40;99.90;;;;;;8327115;28;19925;-70
2023/10/27 17:15:30;;;;;;;;;;;12.30;99.90;;;;;;8330885;28;19933;-70
2023/10/27 17:19:32;;;;;;;;;;;12.20;99.90;;;;;;8342223;28;19982;-70
2023/10/27 17:23:33;;;;;;;;;;;12.20;99.90;;;;;;8325871;28;19929;-70
2023/10/27 17:27:35;;;;;;;;;;;12.10;99.90;;;;;;8326405;28;19978;-70
2023/10/27 17:31:37;;;;;;;;;;;12.10;99.90;;;;;;8322128;28;20419;-70
2023/10/27 17:35:38;;;;;;;;;;;12.10;99.90;;;;;;8323203;28;19933;-70
2023/10/27 17:39:40;;;;;;;;;;;12.10;99.90;;;;;;8323632;28;19925;-70
2023/10/27 17:43:42;;;;;;;;;;;12.10;99.90;;;;;;8322888;28;19925;-70
2023/10/27 17:47:48;;;;;;;;;;;12.10;99.90;;;;;;8327265;28;19925;-70
2023/10/27 17:51:49;;;;;;;;;;;12.20;99.90;;;;;;8324623;28;20529;-70
2023/10/27 17:55:51;;;;;;;;;;;12.20;99.90;;;;;;8324677;28;19925;-70
2023/10/27 17:59:53;;;;;;;;;;;12.20;99.90;;;;;;8322443;28;19929;-70
2023/10/27 18:03:56;;;;;;;;;;;12.20;99.90;;;;;;8328193;28;20419;-70
2023/10/27 18:07:57;;;;;;;;;;;12.10;99.90;;;;;;8322991;28;20357;-70
2023/10/27 18:11:59;;;;;;;;;;;12.10;99.90;;;;;;8327540;28;20416;-70
2023/10/27 18:16:03;;;;;;;;;;;12.10;99.90;;;;;;8325207;28;19932;-70
2023/10/27 18:20:06;;;;;;;;;;;12.10;99.90;;;;;;8323673;28;20548;-70
2023/10/27 18:24:08;;;;;;;;;;;12.00;99.90;;;;;;8320621;28;19967;-70
2023/10/27 18:28:09;;;;;;;;;;;12.00;99.90;;;;;;8324998;28;19933;-70
2023/10/27 18:32:11;;;;;;;;;;;11.90;99.90;;;;;;8324631;28;19933;-70
2023/10/27 18:36:14;;;;;;;;;;;11.90;99.90;;;;;;8338993;28;20192;-70
2023/10/27 18:40:16;;;;;;;;;;;11.90;99.90;;;;;;8322878;28;20018;-70
2023/10/27 18:44:18;;;;;;;;;;;11.80;99.90;;;;;;8324134;28;19925;-70
2023/10/27 18:48:20;;;;;;;;;;;11.80;99.90;;;;;;8322612;28;19933;-70
2023/10/27 18:52:21;;;;;;;;;;;11.70;99.90;;;;;;8320948;28;19925;-70
2023/10/27 18:56:23;;;;;;;;;;;11.70;99.90;;;;;;8321642;28;19942;-70
2023/10/27 19:00:28;;;;;;;;;;;11.60;99.90;;;;;;8320476;28;19925;-70
2023/10/27 19:04:30;;;;;;;;;;;11.60;99.90;;;;;;8324529;28;19990;-70
2023/10/27 19:08:35;;;;;;;;;;;11.60;99.90;;;;;;8320458;28;20394;-70
2023/10/27 19:12:38;;;;;;;;;;;11.60;99.90;;;;;;8320320;28;19968;-70
2023/10/27 19:16:40;;;;;;;;;;;11.60;99.90;;;;;;8323314;28;19940;-70
2023/10/27 19:20:42;;;;;;;;;;;11.50;99.90;;;;;;8322989;28;19979;-70
2023/10/27 19:24:44;;;;;;;;;;;11.50;99.90;;;;;;8320625;28;19939;-70
2023/10/27 19:28:48;;;;;;;;;;;11.40;99.90;;;;;;8323412;28;19955;-70
2023/10/27 19:32:49;;;;;;;;;;;11.40;99.90;;;;;;8319955;28;19929;-70
2023/10/27 19:36:51;;;;;;;;;;;11.30;99.90;;;;;;8322657;28;20359;-70
2023/10/27 19:40:54;;;;;;;;;;;11.30;99.90;;;;;;8319397;28;19933;-70
2023/10/27 19:44:56;;;;;;;;;;;11.30;99.90;;;;;;8320760;28;19929;-69
2023/10/27 19:48:58;;;;;;;;;;;11.20;99.90;;;;;;8324540;28;20407;-70
2023/10/27 19:53:00;;;;;;;;;;;11.20;99.90;;;;;;8321784;28;20007;-70
2023/10/27 19:57:01;;;;;;;;;;;11.20;99.90;;;;;;8322909;28;20563;-70
2023/10/27 20:01:16;;;;;;;;;;;11.20;99.90;;;;;;8334741;28;20035;-70
2023/10/27 20:05:19;;;;;;;;;;;11.20;99.90;;;;;;8302690;28;20372;-70
2023/10/27 20:09:23;;;;;;;;;;;11.20;99.90;;;;;;8311346;28;20353;-70
2023/10/27 20:13:25;;;;;;;;;;;11.20;99.90;;;;;;8328686;28;19940;-70
2023/10/27 20:17:27;;;;;;;;;;;11.10;99.90;;;;;;8326347;28;20376;-70
2023/10/27 20:21:29;;;;;;;;;;;11.10;99.90;;;;;;8327891;28;19951;-70
2023/10/27 20:25:32;;;;;;;;;;;11.10;99.90;;;;;;8328964;28;19964;-70
2023/10/27 20:29:33;;;;;;;;;;;11.10;99.90;;;;;;8312503;28;19992;-70
2023/10/27 20:33:35;;;;;;;;;;;11.00;99.90;;;;;;8328181;28;19929;-70
2023/10/27 20:37:37;;;;;;;;;;;11.00;99.90;;;;;;8327839;28;19929;-70
2023/10/27 20:41:39;;;;;;;;;;;11.00;99.90;;;;;;8328279;28;19925;-70
2023/10/27 20:45:40;;;;;;;;;;;11.00;99.90;;;;;;8329034;28;19936;-70
2023/10/27 20:49:42;;;;;;;;;;;10.90;99.90;;;;;;8327939;28;19964;-70
2023/10/27 20:53:44;;;;;;;;;;;10.90;99.90;;;;;;8325317;28;20020;-70
2023/10/27 20:57:46;;;;;;;;;;;10.80;99.90;;;;;;8325795;28;20297;-70
2023/10/27 21:01:48;;;;;;;;;;;10.80;99.90;;;;;;8334385;28;19929;-70
2023/10/27 21:05:49;;;;;;;;;;;10.70;99.90;;;;;;8351905;28;20335;-70
2023/10/27 21:09:51;;;;;;;;;;;10.70;99.90;;;;;;8352039;28;19948;-70
2023/10/27 21:13:53;;;;;;;;;;;10.70;99.90;;;;;;8359533;28;19936;-70
2023/10/27 21:17:56;;;;;;;;;;;10.60;99.90;;;;;;8357409;28;19971;-70
2023/10/27 21:21:58;;;;;;;;;;;10.60;99.90;;;;;;8341193;28;20040;-70
2023/10/27 21:25:59;;;;;;;;;;;10.50;99.90;;;;;;8356066;28;19936;-70
2023/10/27 21:30:02;;;;;;;;;;;10.50;99.90;;;;;;8343489;28;19929;-70
2023/10/27 21:34:03;;;;;;;;;;;10.50;99.90;;;;;;8358926;28;19929;-70
2023/10/27 21:38:05;;;;;;;;;;;10.40;99.90;;;;;;8336980;28;20022;-70
2023/10/27 21:42:07;;;;;;;;;;;10.40;99.90;;;;;;8358095;28;19986;-70
2023/10/27 21:46:08;;;;;;;;;;;10.40;99.90;;;;;;8355501;28;20004;-70
2023/10/27 21:50:10;;;;;;;;;;;10.40;99.90;;;;;;8339264;28;19940;-70
2023/10/27 21:54:15;;;;;;;;;;;10.40;99.90;;;;;;8357005;28;19931;-70
2023/10/27 21:58:18;;;;;;;;;;;10.40;99.90;;;;;;8358348;28;19933;-70
2023/10/27 22:02:20;;;;;;;;;;;10.40;99.90;;;;;;8356221;28;20726;-70
2023/10/27 22:06:21;;;;;;;;;;;10.50;99.90;;;;;;8354366;28;20235;-70
2023/10/27 22:10:23;;;;;;;;;;;10.50;99.90;;;;;;8349855;28;19936;-70
2023/10/27 22:14:28;;;;;;;;;;;10.50;99.90;;;;;;8356287;28;19925;-70
2023/10/27 22:18:30;;;;;;;;;;;10.40;99.90;;;;;;8355570;28;20408;-70
2023/10/27 22:22:33;;;;;;;;;;;10.40;99.90;;;;;;8340803;28;19964;-70
2023/10/27 22:26:37;;;;;;;;;;;10.40;99.90;;;;;;8354575;28;20209;-70
2023/10/27 22:30:39;;;;;;;;;;;10.30;99.90;;;;;;8353764;28;19924;-70
2023/10/27 22:34:41;;;;;;;;;;;10.30;99.90;;;;;;8357374;28;20416;-70
2023/10/27 22:38:43;;;;;;;;;;;10.30;99.90;;;;;;8354583;28;19924;-70
2023/10/27 22:42:44;;;;;;;;;;;10.20;99.90;;;;;;8371947;28;19936;-70
2023/10/27 22:46:46;;;;;;;;;;;10.20;99.90;;;;;;8353063;28;20373;-70
2023/10/27 22:50:48;;;;;;;;;;;10.10;99.90;;;;;;8338485;28;19982;-70
2023/10/27 22:54:50;;;;;;;;;;;10.10;99.90;;;;;;8355566;28;20360;-70
2023/10/27 22:58:52;;;;;;;;;;;10.10;99.90;;;;;;8354176;28;19932;-70
2023/10/27 23:02:56;;;;;;;;;;;10.00;99.90;;;;;;8352397;28;20414;-70
2023/10/27 23:06:58;;;;;;;;;;;10.00;99.90;;;;;;8355169;28;19925;-70
2023/10/27 23:11:07;;;;;;;;;;;9.90;99.90;;;;;;8348497;28;19925;-70
2023/10/27 23:25:11;;;;;;;;;;;9.90;99.90;;;;;;8351756;28;19998;-70
2023/10/27 23:29:12;;;;;;;;;;;9.90;99.90;;;;;;8354965;28;20372;-70
2023/10/27 23:33:14;;;;;;;;;;;9.80;99.90;;;;;;8354139;28;20575;-70
2023/10/27 23:37:17;;;;;;;;;;;9.90;99.90;;;;;;8328470;28;19974;-70